sensor_id;sensor_type;location;lat;lon;timestamp;P1;durP1;ratioP1;P2;durP2;ratioP2
13807;SDS011;40769;51.512;5.494;2023-06-05T00:01:02;3.05;;;2.70;;
13807;SDS011;40769;51.512;5.494;2023-06-05T00:03:28;2.70;;;2.50;;
13807;SDS011;40769;51.512;5.494;2023-06-05T00:05:54;3.20;;;2.65;;
13807;SDS011;40769;51.512;5.494;2023-06-05T00:08:20;3.10;;;2.80;;
13807;SDS011;40769;51.512;5.494;2023-06-05T00:10:46;3.05;;;2.75;;
13807;SDS011;40769;51.512;5.494;2023-06-05T00:13:11;3.83;;;2.50;;
13807;SDS011;40769;51.512;5.494;2023-06-05T00:15:38;3.33;;;2.90;;
13807;SDS011;40769;51.512;5.494;2023-06-05T00:18:04;2.47;;;2.28;;
13807;SDS011;40769;51.512;5.494;2023-06-05T00:20:30;2.78;;;2.58;;
13807;SDS011;40769;51.512;5.494;2023-06-05T00:22:55;3.47;;;2.60;;
13807;SDS011;40769;51.512;5.494;2023-06-05T00:25:21;2.40;;;2.20;;
13807;SDS011;40769;51.512;5.494;2023-06-05T00:27:47;2.45;;;2.25;;
13807;SDS011;40769;51.512;5.494;2023-06-05T00:30:13;2.65;;;2.45;;
13807;SDS011;40769;51.512;5.494;2023-06-05T00:32:39;3.50;;;2.67;;
13807;SDS011;40769;51.512;5.494;2023-06-05T00:35:05;2.58;;;2.38;;
13807;SDS011;40769;51.512;5.494;2023-06-05T00:37:32;2.78;;;2.50;;
13807;SDS011;40769;51.512;5.494;2023-06-05T00:39:58;2.80;;;2.40;;
13807;SDS011;40769;51.512;5.494;2023-06-05T00:42:24;2.70;;;2.50;;
13807;SDS011;40769;51.512;5.494;2023-06-05T00:44:51;3.15;;;2.70;;
13807;SDS011;40769;51.512;5.494;2023-06-05T00:47:17;3.58;;;2.65;;
13807;SDS011;40769;51.512;5.494;2023-06-05T00:49:43;3.03;;;2.83;;
13807;SDS011;40769;51.512;5.494;2023-06-05T00:52:09;3.58;;;2.85;;
13807;SDS011;40769;51.512;5.494;2023-06-05T00:54:36;4.05;;;2.90;;
13807;SDS011;40769;51.512;5.494;2023-06-05T00:57:01;3.28;;;2.85;;
13807;SDS011;40769;51.512;5.494;2023-06-05T00:59:27;3.60;;;2.97;;
13807;SDS011;40769;51.512;5.494;2023-06-05T01:01:57;3.65;;;3.10;;
13807;SDS011;40769;51.512;5.494;2023-06-05T01:04:23;3.55;;;2.90;;
13807;SDS011;40769;51.512;5.494;2023-06-05T01:06:48;3.83;;;2.80;;
13807;SDS011;40769;51.512;5.494;2023-06-05T01:09:16;3.08;;;2.88;;
13807;SDS011;40769;51.512;5.494;2023-06-05T01:11:50;2.88;;;2.67;;
13807;SDS011;40769;51.512;5.494;2023-06-05T01:14:27;2.53;;;2.33;;
13807;SDS011;40769;51.512;5.494;2023-06-05T01:16:55;2.83;;;2.63;;
13807;SDS011;40769;51.512;5.494;2023-06-05T01:19:25;3.40;;;3.15;;
13807;SDS011;40769;51.512;5.494;2023-06-05T01:21:54;3.22;;;2.67;;
13807;SDS011;40769;51.512;5.494;2023-06-05T01:24:20;2.95;;;2.72;;
13807;SDS011;40769;51.512;5.494;2023-06-05T01:30:04;3.38;;;3.00;;
13807;SDS011;40769;51.512;5.494;2023-06-05T01:32:38;2.88;;;2.67;;
13807;SDS011;40769;51.512;5.494;2023-06-05T01:35:09;3.25;;;2.97;;
13807;SDS011;40769;51.512;5.494;2023-06-05T01:37:41;3.15;;;2.88;;
13807;SDS011;40769;51.512;5.494;2023-06-05T01:40:13;3.38;;;3.08;;
13807;SDS011;40769;51.512;5.494;2023-06-05T01:42:44;3.03;;;2.78;;
13807;SDS011;40769;51.512;5.494;2023-06-05T01:45:11;3.50;;;3.17;;
13807;SDS011;40769;51.512;5.494;2023-06-05T01:47:38;3.75;;;3.45;;
13807;SDS011;40769;51.512;5.494;2023-06-05T01:50:05;3.60;;;3.30;;
13807;SDS011;40769;51.512;5.494;2023-06-05T01:52:32;4.35;;;3.38;;
13807;SDS011;40769;51.512;5.494;2023-06-05T01:54:59;4.10;;;3.38;;
13807;SDS011;40769;51.512;5.494;2023-06-05T01:57:27;3.75;;;3.35;;
13807;SDS011;40769;51.512;5.494;2023-06-05T01:59:54;3.70;;;3.40;;
13807;SDS011;40769;51.512;5.494;2023-06-05T02:02:20;4.97;;;3.70;;
13807;SDS011;40769;51.512;5.494;2023-06-05T02:04:47;4.00;;;3.70;;
13807;SDS011;40769;51.512;5.494;2023-06-05T02:07:13;5.13;;;4.00;;
13807;SDS011;40769;51.512;5.494;2023-06-05T02:09:40;3.63;;;3.28;;
13807;SDS011;40769;51.512;5.494;2023-06-05T02:12:06;4.00;;;3.60;;
13807;SDS011;40769;51.512;5.494;2023-06-05T02:14:32;3.60;;;3.30;;
13807;SDS011;40769;51.512;5.494;2023-06-05T02:17:02;4.07;;;3.65;;
13807;SDS011;40769;51.512;5.494;2023-06-05T02:19:32;3.50;;;3.20;;
13807;SDS011;40769;51.512;5.494;2023-06-05T02:21:58;3.92;;;3.45;;
13807;SDS011;40769;51.512;5.494;2023-06-05T02:24:24;4.35;;;3.95;;
13807;SDS011;40769;51.512;5.494;2023-06-05T02:26:52;3.53;;;3.28;;
13807;SDS011;40769;51.512;5.494;2023-06-05T02:29:18;6.43;;;4.43;;
13807;SDS011;40769;51.512;5.494;2023-06-05T02:31:44;5.05;;;3.70;;
13807;SDS011;40769;51.512;5.494;2023-06-05T02:34:10;4.75;;;3.80;;
13807;SDS011;40769;51.512;5.494;2023-06-05T02:36:36;3.80;;;3.50;;
13807;SDS011;40769;51.512;5.494;2023-06-05T02:39:02;3.97;;;3.67;;
13807;SDS011;40769;51.512;5.494;2023-06-05T02:41:29;3.95;;;3.65;;
13807;SDS011;40769;51.512;5.494;2023-06-05T02:43:55;4.97;;;4.10;;
13807;SDS011;40769;51.512;5.494;2023-06-05T02:46:21;5.15;;;4.30;;
13807;SDS011;40769;51.512;5.494;2023-06-05T02:48:49;3.88;;;3.58;;
13807;SDS011;40769;51.512;5.494;2023-06-05T02:51:15;4.35;;;4.00;;
13807;SDS011;40769;51.512;5.494;2023-06-05T02:53:41;4.68;;;4.10;;
13807;SDS011;40769;51.512;5.494;2023-06-05T02:56:07;4.15;;;3.75;;
13807;SDS011;40769;51.512;5.494;2023-06-05T02:58:32;4.40;;;4.00;;
13807;SDS011;40769;51.512;5.494;2023-06-05T03:00:59;5.00;;;3.78;;
13807;SDS011;40769;51.512;5.494;2023-06-05T03:03:30;4.32;;;3.95;;
13807;SDS011;40769;51.512;5.494;2023-06-05T03:05:57;4.47;;;4.07;;
13807;SDS011;40769;51.512;5.494;2023-06-05T03:08:30;4.68;;;4.28;;
13807;SDS011;40769;51.512;5.494;2023-06-05T03:10:58;4.07;;;3.78;;
13807;SDS011;40769;51.512;5.494;2023-06-05T03:13:25;4.25;;;3.85;;
13807;SDS011;40769;51.512;5.494;2023-06-05T03:15:51;4.60;;;4.20;;
13807;SDS011;40769;51.512;5.494;2023-06-05T03:18:18;4.68;;;4.28;;
13807;SDS011;40769;51.512;5.494;2023-06-05T03:20:46;4.45;;;4.05;;
13807;SDS011;40769;51.512;5.494;2023-06-05T03:23:16;4.78;;;4.28;;
13807;SDS011;40769;51.512;5.494;2023-06-05T03:25:42;4.63;;;4.22;;
13807;SDS011;40769;51.512;5.494;2023-06-05T03:28:08;4.70;;;4.40;;
13807;SDS011;40769;51.512;5.494;2023-06-05T03:30:33;4.57;;;4.18;;
13807;SDS011;40769;51.512;5.494;2023-06-05T03:32:59;4.65;;;4.25;;
13807;SDS011;40769;51.512;5.494;2023-06-05T03:35:25;5.03;;;4.55;;
13807;SDS011;40769;51.512;5.494;2023-06-05T03:37:51;4.30;;;4.00;;
13807;SDS011;40769;51.512;5.494;2023-06-05T03:40:17;5.50;;;5.00;;
13807;SDS011;40769;51.512;5.494;2023-06-05T03:42:42;4.88;;;4.47;;
13807;SDS011;40769;51.512;5.494;2023-06-05T03:45:08;5.10;;;4.70;;
13807;SDS011;40769;51.512;5.494;2023-06-05T03:47:34;5.30;;;4.80;;
13807;SDS011;40769;51.512;5.494;2023-06-05T03:49:59;5.15;;;4.65;;
13807;SDS011;40769;51.512;5.494;2023-06-05T03:52:25;4.95;;;4.55;;
13807;SDS011;40769;51.512;5.494;2023-06-05T03:54:51;4.43;;;4.05;;
13807;SDS011;40769;51.512;5.494;2023-06-05T03:57:20;4.30;;;3.85;;
13807;SDS011;40769;51.512;5.494;2023-06-05T03:59:47;4.40;;;4.00;;
13807;SDS011;40769;51.512;5.494;2023-06-05T04:02:13;5.28;;;4.78;;
13807;SDS011;40769;51.512;5.494;2023-06-05T04:04:41;5.30;;;4.90;;
13807;SDS011;40769;51.512;5.494;2023-06-05T04:07:07;4.75;;;4.35;;
13807;SDS011;40769;51.512;5.494;2023-06-05T04:09:33;5.25;;;4.78;;
13807;SDS011;40769;51.512;5.494;2023-06-05T04:11:58;4.78;;;4.40;;
13807;SDS011;40769;51.512;5.494;2023-06-05T04:14:24;4.43;;;4.10;;
13807;SDS011;40769;51.512;5.494;2023-06-05T04:16:49;5.00;;;4.60;;
13807;SDS011;40769;51.512;5.494;2023-06-05T04:19:15;5.13;;;4.70;;
13807;SDS011;40769;51.512;5.494;2023-06-05T04:21:41;5.22;;;4.82;;
13807;SDS011;40769;51.512;5.494;2023-06-05T04:24:08;5.90;;;5.30;;
13807;SDS011;40769;51.512;5.494;2023-06-05T04:26:36;5.63;;;5.13;;
13807;SDS011;40769;51.512;5.494;2023-06-05T04:29:02;5.60;;;5.03;;
13807;SDS011;40769;51.512;5.494;2023-06-05T04:31:34;5.50;;;5.10;;
13807;SDS011;40769;51.512;5.494;2023-06-05T04:34:00;5.60;;;5.10;;
13807;SDS011;40769;51.512;5.494;2023-06-05T04:36:28;5.60;;;5.05;;
13807;SDS011;40769;51.512;5.494;2023-06-05T04:38:53;5.93;;;5.43;;
13807;SDS011;40769;51.512;5.494;2023-06-05T04:41:19;5.50;;;5.00;;
13807;SDS011;40769;51.512;5.494;2023-06-05T04:47:03;6.00;;;5.50;;
13807;SDS011;40769;51.512;5.494;2023-06-05T04:49:31;6.10;;;5.50;;
13807;SDS011;40769;51.512;5.494;2023-06-05T04:51:57;6.18;;;5.63;;
13807;SDS011;40769;51.512;5.494;2023-06-05T04:54:24;6.70;;;5.95;;
13807;SDS011;40769;51.512;5.494;2023-06-05T04:56:50;6.00;;;5.50;;
13807;SDS011;40769;51.512;5.494;2023-06-05T04:59:15;6.28;;;5.78;;
13807;SDS011;40769;51.512;5.494;2023-06-05T05:01:41;5.35;;;4.95;;
13807;SDS011;40769;51.512;5.494;2023-06-05T05:04:08;6.72;;;6.13;;
13807;SDS011;40769;51.512;5.494;2023-06-05T05:06:34;7.13;;;6.53;;
13807;SDS011;40769;51.512;5.494;2023-06-05T05:09:00;7.30;;;6.70;;
13807;SDS011;40769;51.512;5.494;2023-06-05T05:11:25;6.80;;;6.30;;
13807;SDS011;40769;51.512;5.494;2023-06-05T05:13:51;6.53;;;6.03;;
13807;SDS011;40769;51.512;5.494;2023-06-05T05:16:17;7.18;;;6.57;;
13807;SDS011;40769;51.512;5.494;2023-06-05T05:18:43;6.82;;;6.28;;
13807;SDS011;40769;51.512;5.494;2023-06-05T05:21:09;7.18;;;6.60;;
13807;SDS011;40769;51.512;5.494;2023-06-05T05:23:35;7.03;;;6.43;;
13807;SDS011;40769;51.512;5.494;2023-06-05T05:26:01;8.32;;;7.30;;
13807;SDS011;40769;51.512;5.494;2023-06-05T05:28:27;7.72;;;6.50;;
13807;SDS011;40769;51.512;5.494;2023-06-05T05:30:53;7.43;;;6.72;;
13807;SDS011;40769;51.512;5.494;2023-06-05T05:33:21;7.53;;;6.88;;
13807;SDS011;40769;51.512;5.494;2023-06-05T05:35:47;8.23;;;7.47;;
13807;SDS011;40769;51.512;5.494;2023-06-05T05:38:13;8.20;;;7.43;;
13807;SDS011;40769;51.512;5.494;2023-06-05T05:40:39;8.07;;;7.38;;
13807;SDS011;40769;51.512;5.494;2023-06-05T05:43:05;7.28;;;6.55;;
13807;SDS011;40769;51.512;5.494;2023-06-05T05:45:32;8.13;;;7.30;;
13807;SDS011;40769;51.512;5.494;2023-06-05T05:47:58;7.90;;;7.20;;
13807;SDS011;40769;51.512;5.494;2023-06-05T05:50:24;8.13;;;7.43;;
13807;SDS011;40769;51.512;5.494;2023-06-05T05:52:50;7.05;;;6.43;;
13807;SDS011;40769;51.512;5.494;2023-06-05T05:55:18;7.95;;;7.15;;
13807;SDS011;40769;51.512;5.494;2023-06-05T05:57:43;8.00;;;7.32;;
13807;SDS011;40769;51.512;5.494;2023-06-05T06:00:09;8.52;;;7.82;;
13807;SDS011;40769;51.512;5.494;2023-06-05T06:02:40;7.95;;;7.25;;
13807;SDS011;40769;51.512;5.494;2023-06-05T06:05:07;9.13;;;8.32;;
13807;SDS011;40769;51.512;5.494;2023-06-05T06:07:33;8.07;;;7.38;;
13807;SDS011;40769;51.512;5.494;2023-06-05T06:10:00;7.93;;;7.28;;
13807;SDS011;40769;51.512;5.494;2023-06-05T06:12:26;7.10;;;6.50;;
13807;SDS011;40769;51.512;5.494;2023-06-05T06:14:53;7.13;;;6.43;;
13807;SDS011;40769;51.512;5.494;2023-06-05T06:17:21;6.93;;;5.90;;
13807;SDS011;40769;51.512;5.494;2023-06-05T06:19:47;7.15;;;6.55;;
13807;SDS011;40769;51.512;5.494;2023-06-05T06:22:13;6.75;;;6.13;;
13807;SDS011;40769;51.512;5.494;2023-06-05T06:24:40;7.50;;;6.80;;
13807;SDS011;40769;51.512;5.494;2023-06-05T06:27:10;7.30;;;6.60;;
13807;SDS011;40769;51.512;5.494;2023-06-05T06:29:45;6.85;;;6.25;;
13807;SDS011;40769;51.512;5.494;2023-06-05T06:32:17;7.07;;;6.47;;
13807;SDS011;40769;51.512;5.494;2023-06-05T06:34:44;6.43;;;5.82;;
13807;SDS011;40769;51.512;5.494;2023-06-05T06:37:10;7.05;;;6.45;;
13807;SDS011;40769;51.512;5.494;2023-06-05T06:39:37;6.60;;;6.00;;
13807;SDS011;40769;51.512;5.494;2023-06-05T06:42:06;7.30;;;6.53;;
13807;SDS011;40769;51.512;5.494;2023-06-05T06:44:34;5.97;;;5.38;;
13807;SDS011;40769;51.512;5.494;2023-06-05T06:47:00;6.70;;;6.10;;
13807;SDS011;40769;51.512;5.494;2023-06-05T06:49:26;6.50;;;5.90;;
13807;SDS011;40769;51.512;5.494;2023-06-05T06:51:52;7.13;;;5.57;;
13807;SDS011;40769;51.512;5.494;2023-06-05T06:54:18;6.07;;;5.40;;
13807;SDS011;40769;51.512;5.494;2023-06-05T06:56:43;6.25;;;5.65;;
13807;SDS011;40769;51.512;5.494;2023-06-05T06:59:10;6.05;;;5.55;;
13807;SDS011;40769;51.512;5.494;2023-06-05T07:01:41;5.70;;;5.20;;
13807;SDS011;40769;51.512;5.494;2023-06-05T07:04:10;6.93;;;6.18;;
13807;SDS011;40769;51.512;5.494;2023-06-05T07:06:45;6.13;;;5.28;;
13807;SDS011;40769;51.512;5.494;2023-06-05T07:09:14;4.85;;;4.45;;
13807;SDS011;40769;51.512;5.494;2023-06-05T07:11:39;4.95;;;4.45;;
13807;SDS011;40769;51.512;5.494;2023-06-05T07:14:05;5.70;;;4.93;;
13807;SDS011;40769;51.512;5.494;2023-06-05T07:16:32;5.93;;;4.78;;
13807;SDS011;40769;51.512;5.494;2023-06-05T07:18:58;6.10;;;5.50;;
13807;SDS011;40769;51.512;5.494;2023-06-05T07:21:26;5.05;;;4.55;;
13807;SDS011;40769;51.512;5.494;2023-06-05T07:23:52;5.28;;;4.47;;
13807;SDS011;40769;51.512;5.494;2023-06-05T07:26:18;5.70;;;4.88;;
13807;SDS011;40769;51.512;5.494;2023-06-05T07:28:44;6.00;;;4.70;;
13807;SDS011;40769;51.512;5.494;2023-06-05T07:31:11;5.07;;;4.50;;
13807;SDS011;40769;51.512;5.494;2023-06-05T07:33:41;4.72;;;4.20;;
13807;SDS011;40769;51.512;5.494;2023-06-05T07:36:07;5.18;;;4.05;;
13807;SDS011;40769;51.512;5.494;2023-06-05T07:38:35;5.20;;;4.00;;
13807;SDS011;40769;51.512;5.494;2023-06-05T07:41:01;5.25;;;4.60;;
13807;SDS011;40769;51.512;5.494;2023-06-05T07:43:27;4.47;;;4.07;;
13807;SDS011;40769;51.512;5.494;2023-06-05T07:45:53;6.18;;;5.10;;
13807;SDS011;40769;51.512;5.494;2023-06-05T07:48:19;5.47;;;4.57;;
13807;SDS011;40769;51.512;5.494;2023-06-05T07:50:45;6.63;;;4.30;;
13807;SDS011;40769;51.512;5.494;2023-06-05T07:53:11;4.38;;;3.67;;
13807;SDS011;40769;51.512;5.494;2023-06-05T07:55:36;5.20;;;3.92;;
13807;SDS011;40769;51.512;5.494;2023-06-05T07:58:02;4.40;;;4.00;;
13807;SDS011;40769;51.512;5.494;2023-06-05T08:00:28;5.75;;;3.88;;
13807;SDS011;40769;51.512;5.494;2023-06-05T08:02:53;6.55;;;4.32;;
13807;SDS011;40769;51.512;5.494;2023-06-05T08:05:19;5.20;;;4.38;;
13807;SDS011;40769;51.512;5.494;2023-06-05T08:07:45;5.90;;;4.45;;
13807;SDS011;40769;51.512;5.494;2023-06-05T08:10:11;4.88;;;4.38;;
13807;SDS011;40769;51.512;5.494;2023-06-05T08:12:37;5.30;;;4.60;;
13807;SDS011;40769;51.512;5.494;2023-06-05T08:15:04;5.30;;;4.80;;
13807;SDS011;40769;51.512;5.494;2023-06-05T08:17:31;6.75;;;4.85;;
13807;SDS011;40769;51.512;5.494;2023-06-05T08:19:57;5.50;;;4.22;;
13807;SDS011;40769;51.512;5.494;2023-06-05T08:22:22;5.25;;;4.20;;
13807;SDS011;40769;51.512;5.494;2023-06-05T08:24:48;4.35;;;3.70;;
13807;SDS011;40769;51.512;5.494;2023-06-05T08:27:16;6.07;;;4.05;;
13807;SDS011;40769;51.512;5.494;2023-06-05T08:29:42;5.65;;;3.95;;
13807;SDS011;40769;51.512;5.494;2023-06-05T08:32:08;4.03;;;3.72;;
13807;SDS011;40769;51.512;5.494;2023-06-05T08:34:34;4.28;;;3.83;;
13807;SDS011;40769;51.512;5.494;2023-06-05T08:37:00;5.90;;;4.82;;
13807;SDS011;40769;51.512;5.494;2023-06-05T08:39:26;5.90;;;4.18;;
13807;SDS011;40769;51.512;5.494;2023-06-05T08:41:56;6.85;;;4.10;;
13807;SDS011;40769;51.512;5.494;2023-06-05T08:44:25;4.00;;;3.60;;
13807;SDS011;40769;51.512;5.494;2023-06-05T08:46:55;3.72;;;3.30;;
13807;SDS011;40769;51.512;5.494;2023-06-05T08:49:26;4.00;;;3.45;;
13807;SDS011;40769;51.512;5.494;2023-06-05T08:52:01;3.17;;;2.88;;
13807;SDS011;40769;51.512;5.494;2023-06-05T08:54:28;5.82;;;3.78;;
13807;SDS011;40769;51.512;5.494;2023-06-05T08:56:58;4.80;;;4.10;;
13807;SDS011;40769;51.512;5.494;2023-06-05T08:59:24;4.03;;;3.53;;
13807;SDS011;40769;51.512;5.494;2023-06-05T09:01:51;6.07;;;3.80;;
13807;SDS011;40769;51.512;5.494;2023-06-05T09:04:17;5.30;;;3.40;;
13807;SDS011;40769;51.512;5.494;2023-06-05T09:06:46;4.05;;;3.60;;
13807;SDS011;40769;51.512;5.494;2023-06-05T09:09:17;4.03;;;3.65;;
13807;SDS011;40769;51.512;5.494;2023-06-05T09:11:43;4.13;;;3.67;;
13807;SDS011;40769;51.512;5.494;2023-06-05T09:14:08;5.90;;;3.97;;
13807;SDS011;40769;51.512;5.494;2023-06-05T09:16:38;3.92;;;3.53;;
13807;SDS011;40769;51.512;5.494;2023-06-05T09:19:08;4.97;;;3.97;;
13807;SDS011;40769;51.512;5.494;2023-06-05T09:21:38;5.40;;;4.10;;
13807;SDS011;40769;51.512;5.494;2023-06-05T09:24:15;4.65;;;4.13;;
13807;SDS011;40769;51.512;5.494;2023-06-05T09:29:28;4.82;;;3.75;;
13807;SDS011;40769;51.512;5.494;2023-06-05T09:31:59;4.35;;;3.88;;
13807;SDS011;40769;51.512;5.494;2023-06-05T09:34:39;4.70;;;4.28;;
13807;SDS011;40769;51.512;5.494;2023-06-05T09:37:08;6.93;;;3.80;;
13807;SDS011;40769;51.512;5.494;2023-06-05T09:39:35;5.38;;;3.72;;
13807;SDS011;40769;51.512;5.494;2023-06-05T09:42:03;4.40;;;3.42;;
13807;SDS011;40769;51.512;5.494;2023-06-05T09:44:29;4.43;;;3.53;;
13807;SDS011;40769;51.512;5.494;2023-06-05T09:47:00;5.00;;;3.20;;
13807;SDS011;40769;51.512;5.494;2023-06-05T09:49:30;4.57;;;3.05;;
13807;SDS011;40769;51.512;5.494;2023-06-05T09:51:58;3.63;;;3.33;;
13807;SDS011;40769;51.512;5.494;2023-06-05T09:54:26;5.20;;;3.63;;
13807;SDS011;40769;51.512;5.494;2023-06-05T09:56:56;4.15;;;3.42;;
13807;SDS011;40769;51.512;5.494;2023-06-05T09:59:30;4.53;;;3.50;;
13807;SDS011;40769;51.512;5.494;2023-06-05T10:01:57;4.53;;;3.90;;
13807;SDS011;40769;51.512;5.494;2023-06-05T10:04:27;4.53;;;3.70;;
13807;SDS011;40769;51.512;5.494;2023-06-05T10:07:02;4.28;;;3.75;;
13807;SDS011;40769;51.512;5.494;2023-06-05T10:09:30;4.13;;;3.20;;
13807;SDS011;40769;51.512;5.494;2023-06-05T10:11:56;6.03;;;4.60;;
13807;SDS011;40769;51.512;5.494;2023-06-05T10:14:23;5.53;;;4.07;;
13807;SDS011;40769;51.512;5.494;2023-06-05T10:16:49;4.60;;;3.92;;
13807;SDS011;40769;51.512;5.494;2023-06-05T10:19:19;3.80;;;3.03;;
13807;SDS011;40769;51.512;5.494;2023-06-05T10:21:48;4.88;;;3.50;;
13807;SDS011;40769;51.512;5.494;2023-06-05T10:24:26;3.65;;;3.35;;
13807;SDS011;40769;51.512;5.494;2023-06-05T10:38:07;4.78;;;3.47;;
13807;SDS011;40769;51.512;5.494;2023-06-05T10:40:26;4.30;;;3.22;;
13807;SDS011;40769;51.512;5.494;2023-06-05T10:42:53;4.85;;;3.33;;
13807;SDS011;40769;51.512;5.494;2023-06-05T10:45:30;4.07;;;3.45;;
13807;SDS011;40769;51.512;5.494;2023-06-05T10:47:57;3.83;;;3.40;;
13807;SDS011;40769;51.512;5.494;2023-06-05T10:50:23;4.00;;;3.03;;
13807;SDS011;40769;51.512;5.494;2023-06-05T10:52:52;3.90;;;3.45;;
13807;SDS011;40769;51.512;5.494;2023-06-05T10:55:19;4.32;;;3.60;;
13807;SDS011;40769;51.512;5.494;2023-06-05T11:00:27;3.20;;;2.90;;
13807;SDS011;40769;51.512;5.494;2023-06-05T11:02:53;5.45;;;3.25;;
13807;SDS011;40769;51.512;5.494;2023-06-05T11:05:19;3.97;;;2.90;;
13807;SDS011;40769;51.512;5.494;2023-06-05T11:07:45;3.55;;;2.80;;
13807;SDS011;40769;51.512;5.494;2023-06-05T11:17:55;4.47;;;3.00;;
13807;SDS011;40769;51.512;5.494;2023-06-05T11:30:28;3.42;;;2.75;;
13807;SDS011;40769;51.512;5.494;2023-06-05T11:33:06;2.67;;;2.47;;
13807;SDS011;40769;51.512;5.494;2023-06-05T11:35:33;2.92;;;2.63;;
13807;SDS011;40769;51.512;5.494;2023-06-05T11:38:06;3.97;;;3.00;;
13807;SDS011;40769;51.512;5.494;2023-06-05T11:40:32;3.33;;;2.90;;
13807;SDS011;40769;51.512;5.494;2023-06-05T11:43:01;3.90;;;2.95;;
13807;SDS011;40769;51.512;5.494;2023-06-05T11:45:35;3.90;;;3.50;;
13807;SDS011;40769;51.512;5.494;2023-06-05T11:48:11;5.15;;;3.38;;
13807;SDS011;40769;51.512;5.494;2023-06-05T11:50:39;4.25;;;3.00;;
13807;SDS011;40769;51.512;5.494;2023-06-05T11:53:19;3.30;;;2.78;;
13807;SDS011;40769;51.512;5.494;2023-06-05T11:55:45;2.75;;;2.53;;
13807;SDS011;40769;51.512;5.494;2023-06-05T11:58:20;2.55;;;2.35;;
13807;SDS011;40769;51.512;5.494;2023-06-05T12:00:47;4.28;;;2.63;;
13807;SDS011;40769;51.512;5.494;2023-06-05T12:03:19;2.78;;;2.58;;
13807;SDS011;40769;51.512;5.494;2023-06-05T12:05:48;3.55;;;2.63;;
13807;SDS011;40769;51.512;5.494;2023-06-05T12:08:24;5.40;;;2.70;;
13807;SDS011;40769;51.512;5.494;2023-06-05T12:10:51;3.92;;;2.90;;
13807;SDS011;40769;51.512;5.494;2023-06-05T12:13:17;3.58;;;3.15;;
13807;SDS011;40769;51.512;5.494;2023-06-05T12:15:44;3.20;;;2.97;;
13807;SDS011;40769;51.512;5.494;2023-06-05T12:18:30;3.20;;;2.60;;
13807;SDS011;40769;51.512;5.494;2023-06-05T12:20:56;3.25;;;2.90;;
13807;SDS011;40769;51.512;5.494;2023-06-05T12:23:22;2.55;;;2.10;;
13807;SDS011;40769;51.512;5.494;2023-06-05T12:25:57;3.00;;;2.30;;
13807;SDS011;40769;51.512;5.494;2023-06-05T12:28:27;3.45;;;2.40;;
13807;SDS011;40769;51.512;5.494;2023-06-05T12:30:53;2.95;;;2.22;;
13807;SDS011;40769;51.512;5.494;2023-06-05T12:33:19;2.63;;;2.30;;
13807;SDS011;40769;51.512;5.494;2023-06-05T12:35:48;2.45;;;2.10;;
13807;SDS011;40769;51.512;5.494;2023-06-05T12:38:26;2.22;;;2.03;;
13807;SDS011;40769;51.512;5.494;2023-06-05T12:40:52;2.50;;;1.88;;
13807;SDS011;40769;51.512;5.494;2023-06-05T12:43:18;1.88;;;1.70;;
13807;SDS011;40769;51.512;5.494;2023-06-05T12:45:44;2.03;;;1.85;;
13807;SDS011;40769;51.512;5.494;2023-06-05T12:48:09;2.15;;;1.90;;
13807;SDS011;40769;51.512;5.494;2023-06-05T12:50:37;2.20;;;1.98;;
13807;SDS011;40769;51.512;5.494;2023-06-05T12:53:03;2.45;;;1.90;;
13807;SDS011;40769;51.512;5.494;2023-06-05T12:55:28;2.83;;;1.80;;
13807;SDS011;40769;51.512;5.494;2023-06-05T12:57:54;3.03;;;2.40;;
13807;SDS011;40769;51.512;5.494;2023-06-05T13:00:20;2.67;;;2.47;;
13807;SDS011;40769;51.512;5.494;2023-06-05T13:02:46;3.85;;;2.28;;
13807;SDS011;40769;51.512;5.494;2023-06-05T13:05:13;3.72;;;2.50;;
13807;SDS011;40769;51.512;5.494;2023-06-05T13:07:41;2.30;;;2.10;;
13807;SDS011;40769;51.512;5.494;2023-06-05T13:10:07;3.83;;;2.40;;
13807;SDS011;40769;51.512;5.494;2023-06-05T13:12:33;2.28;;;2.00;;
13807;SDS011;40769;51.512;5.494;2023-06-05T13:14:59;2.17;;;2.08;;
13807;SDS011;40769;51.512;5.494;2023-06-05T13:17:26;2.03;;;1.75;;
13807;SDS011;40769;51.512;5.494;2023-06-05T13:19:52;1.90;;;1.80;;
13807;SDS011;40769;51.512;5.494;2023-06-05T13:22:18;3.13;;;2.08;;
13807;SDS011;40769;51.512;5.494;2023-06-05T13:24:44;2.40;;;2.20;;
13807;SDS011;40769;51.512;5.494;2023-06-05T13:27:11;3.60;;;1.98;;
13807;SDS011;40769;51.512;5.494;2023-06-05T13:29:36;2.10;;;1.73;;
13807;SDS011;40769;51.512;5.494;2023-06-05T13:32:02;1.88;;;1.77;;
13807;SDS011;40769;51.512;5.494;2023-06-05T13:34:28;3.22;;;1.90;;
13807;SDS011;40769;51.512;5.494;2023-06-05T13:36:53;2.70;;;2.42;;
13807;SDS011;40769;51.512;5.494;2023-06-05T13:39:19;2.88;;;1.90;;
13807;SDS011;40769;51.512;5.494;2023-06-05T13:41:44;2.50;;;2.30;;
13807;SDS011;40769;51.512;5.494;2023-06-05T13:44:10;3.05;;;2.20;;
13807;SDS011;40769;51.512;5.494;2023-06-05T13:46:36;2.60;;;2.05;;
13807;SDS011;40769;51.512;5.494;2023-06-05T13:49:01;3.03;;;2.20;;
13807;SDS011;40769;51.512;5.494;2023-06-05T13:51:27;2.92;;;2.05;;
13807;SDS011;40769;51.512;5.494;2023-06-05T13:53:53;4.03;;;1.83;;
13807;SDS011;40769;51.512;5.494;2023-06-05T13:56:21;3.22;;;2.00;;
13807;SDS011;40769;51.512;5.494;2023-06-05T13:58:47;2.72;;;1.90;;
13807;SDS011;40769;51.512;5.494;2023-06-05T14:01:13;2.50;;;1.75;;
13807;SDS011;40769;51.512;5.494;2023-06-05T14:03:39;3.08;;;1.92;;
13807;SDS011;40769;51.512;5.494;2023-06-05T14:06:05;3.72;;;2.13;;
13807;SDS011;40769;51.512;5.494;2023-06-05T14:08:31;2.10;;;1.90;;
13807;SDS011;40769;51.512;5.494;2023-06-05T14:10:58;2.13;;;1.92;;
13807;SDS011;40769;51.512;5.494;2023-06-05T14:13:23;3.08;;;2.00;;
13807;SDS011;40769;51.512;5.494;2023-06-05T14:15:49;2.97;;;2.00;;
13807;SDS011;40769;51.512;5.494;2023-06-05T14:18:15;2.53;;;1.95;;
13807;SDS011;40769;51.512;5.494;2023-06-05T14:20:43;2.78;;;1.80;;
13807;SDS011;40769;51.512;5.494;2023-06-05T14:23:09;2.65;;;1.75;;
13807;SDS011;40769;51.512;5.494;2023-06-05T14:25:35;2.28;;;2.08;;
13807;SDS011;40769;51.512;5.494;2023-06-05T14:28:01;2.47;;;2.28;;
13807;SDS011;40769;51.512;5.494;2023-06-05T14:30:27;1.77;;;1.67;;
13807;SDS011;40769;51.512;5.494;2023-06-05T14:32:53;2.20;;;2.00;;
13807;SDS011;40769;51.512;5.494;2023-06-05T14:35:20;1.60;;;1.50;;
13807;SDS011;40769;51.512;5.494;2023-06-05T14:37:47;3.17;;;2.22;;
13807;SDS011;40769;51.512;5.494;2023-06-05T14:40:13;2.00;;;1.90;;
13807;SDS011;40769;51.512;5.494;2023-06-05T14:42:39;2.00;;;1.65;;
13807;SDS011;40769;51.512;5.494;2023-06-05T14:45:05;2.13;;;1.92;;
13807;SDS011;40769;51.512;5.494;2023-06-05T14:47:31;2.05;;;1.88;;
13807;SDS011;40769;51.512;5.494;2023-06-05T14:49:56;1.83;;;1.73;;
13807;SDS011;40769;51.512;5.494;2023-06-05T14:52:22;1.80;;;1.70;;
13807;SDS011;40769;51.512;5.494;2023-06-05T14:54:48;2.00;;;1.90;;
13807;SDS011;40769;51.512;5.494;2023-06-05T14:57:13;1.98;;;1.88;;
13807;SDS011;40769;51.512;5.494;2023-06-05T14:59:42;3.13;;;2.28;;
13807;SDS011;40769;51.512;5.494;2023-06-05T15:02:08;2.05;;;1.75;;
13807;SDS011;40769;51.512;5.494;2023-06-05T15:04:33;2.10;;;1.90;;
13807;SDS011;40769;51.512;5.494;2023-06-05T15:06:59;2.25;;;2.05;;
13807;SDS011;40769;51.512;5.494;2023-06-05T15:09:25;1.98;;;1.77;;
13807;SDS011;40769;51.512;5.494;2023-06-05T15:11:51;3.15;;;2.20;;
13807;SDS011;40769;51.512;5.494;2023-06-05T15:14:20;2.25;;;2.00;;
13807;SDS011;40769;51.512;5.494;2023-06-05T15:16:46;2.30;;;2.10;;
13807;SDS011;40769;51.512;5.494;2023-06-05T15:19:12;3.28;;;2.08;;
13807;SDS011;40769;51.512;5.494;2023-06-05T15:21:37;2.15;;;2.03;;
13807;SDS011;40769;51.512;5.494;2023-06-05T15:24:04;2.38;;;2.00;;
13807;SDS011;40769;51.512;5.494;2023-06-05T15:26:30;1.90;;;1.80;;
13807;SDS011;40769;51.512;5.494;2023-06-05T15:28:56;4.35;;;1.60;;